createdAt,value
2022-11-18T00:02:01.812Z,6.00
2022-11-18T00:04:35.143Z,5.65
2022-11-18T00:07:09.903Z,6.25
2022-11-18T00:09:43.246Z,5.78
2022-11-18T00:12:34.200Z,5.78
2022-11-18T00:15:08.471Z,5.38
2022-11-18T00:17:41.724Z,5.32
2022-11-18T00:20:15.134Z,5.60
2022-11-18T00:22:49.755Z,5.65
2022-11-18T00:25:23.208Z,5.63
2022-11-18T00:27:56.466Z,5.35
2022-11-18T00:30:29.943Z,5.60
2022-11-18T00:33:03.202Z,5.57
2022-11-18T00:35:36.656Z,5.68
2022-11-18T00:38:11.471Z,5.40
2022-11-18T00:40:44.759Z,6.47
2022-11-18T00:43:17.474Z,6.00
2022-11-18T00:48:24.512Z,6.45
2022-11-18T00:50:59.991Z,5.97
2022-11-18T00:53:34.629Z,5.10
2022-11-18T00:56:09.084Z,5.85
2022-11-18T00:58:42.370Z,5.70
2022-11-18T01:01:16.025Z,5.53
2022-11-18T01:03:49.345Z,5.63
2022-11-18T01:06:23.136Z,5.88
2022-11-18T01:08:57.787Z,6.30
2022-11-18T01:11:48.465Z,6.15
2022-11-18T01:14:21.749Z,5.55
2022-11-18T01:16:56.361Z,6.05
2022-11-18T01:19:29.816Z,6.80
2022-11-18T01:22:04.212Z,6.95
2022-11-18T01:24:39.030Z,5.53
2022-11-18T01:27:12.482Z,6.72
2022-11-18T01:29:45.754Z,5.25
2022-11-18T01:32:26.500Z,5.68
2022-11-18T01:34:59.790Z,6.07
2022-11-18T01:37:33.230Z,6.85
2022-11-18T01:40:09.727Z,6.40
2022-11-18T01:42:43.302Z,6.53
2022-11-18T01:45:25.818Z,6.82
2022-11-18T01:48:03.787Z,6.15
2022-11-18T01:50:41.268Z,6.70
2022-11-18T01:53:18.350Z,6.00
2022-11-18T01:55:55.613Z,6.80
2022-11-18T01:58:34.854Z,5.68
2022-11-18T02:01:09.499Z,6.13
2022-11-18T02:03:44.374Z,6.07
2022-11-18T02:06:19.352Z,6.93
2022-11-18T02:08:53.083Z,6.68
2022-11-18T02:11:45.597Z,5.97
2022-11-18T02:14:21.826Z,6.50
2022-11-18T02:17:06.092Z,7.43
2022-11-18T02:20:08.294Z,7.97
2022-11-18T02:23:17.630Z,6.97
2022-11-18T02:26:14.380Z,6.72
2022-11-18T02:29:08.977Z,6.95
2022-11-18T02:31:50.220Z,6.00
2022-11-18T02:34:34.602Z,6.88
2022-11-18T02:37:14.588Z,6.15
2022-11-18T02:39:55.797Z,6.93
2022-11-18T02:42:32.215Z,6.95
2022-11-18T02:45:11.070Z,7.80
2022-11-18T02:47:47.971Z,5.90
2022-11-18T02:50:24.403Z,6.18
2022-11-18T02:53:00.905Z,6.15
2022-11-18T02:55:37.369Z,7.13
2022-11-18T02:58:12.605Z,6.68
2022-11-18T03:00:54.595Z,6.57
2022-11-18T03:03:30.448Z,5.07
2022-11-18T03:06:14.620Z,6.60
2022-11-18T03:08:53.873Z,6.05
2022-11-18T03:11:32.211Z,6.38
2022-11-18T03:14:23.578Z,6.03
2022-11-18T03:17:01.619Z,5.25
2022-11-18T03:19:47.105Z,5.68
2022-11-18T03:22:27.455Z,5.38
2022-11-18T03:25:05.323Z,6.05
2022-11-18T03:27:43.604Z,4.88
2022-11-18T03:30:20.308Z,6.18
2022-11-18T03:33:00.235Z,6.85
2022-11-18T03:35:36.745Z,7.45
2022-11-18T03:38:15.915Z,6.20
2022-11-18T03:40:54.457Z,6.60
2022-11-18T03:43:32.194Z,7.20
2022-11-18T03:46:10.182Z,6.30
2022-11-18T03:48:49.791Z,8.63
2022-11-18T03:51:27.513Z,7.50
2022-11-18T03:54:04.651Z,7.82
2022-11-18T03:56:43.623Z,7.03
2022-11-18T03:59:22.279Z,7.65
2022-11-18T04:01:59.058Z,6.88
2022-11-18T04:04:34.255Z,6.80
2022-11-18T04:07:12.788Z,5.53
2022-11-18T04:09:51.503Z,5.80
2022-11-18T04:12:26.641Z,6.35
2022-11-18T04:15:00.997Z,6.15
2022-11-18T04:17:34.269Z,5.93
2022-11-18T04:20:14.667Z,6.72
2022-11-18T04:22:49.239Z,6.63
2022-11-18T04:25:24.616Z,6.03
2022-11-18T04:27:58.097Z,5.20
2022-11-18T04:30:32.016Z,5.13
2022-11-18T04:33:05.434Z,6.25
2022-11-18T04:35:40.276Z,6.05
2022-11-18T04:38:16.616Z,5.93
2022-11-18T04:40:54.086Z,6.65
2022-11-18T04:43:27.422Z,6.55
2022-11-18T04:46:00.873Z,5.72
2022-11-18T04:48:34.386Z,5.68
2022-11-18T04:51:09.025Z,5.75
2022-11-18T04:53:42.331Z,6.22
2022-11-18T04:56:15.784Z,5.68
2022-11-18T04:58:49.049Z,6.53
2022-11-18T05:01:22.393Z,5.95
2022-11-18T05:03:55.817Z,7.75
2022-11-18T05:06:31.123Z,7.05
2022-11-18T05:09:04.954Z,6.10
2022-11-18T05:11:56.017Z,6.28
2022-11-18T05:14:30.987Z,6.93
2022-11-18T05:17:06.297Z,7.63
2022-11-18T05:19:40.558Z,8.40
2022-11-18T05:22:15.966Z,7.70
2022-11-18T05:24:49.604Z,7.78
2022-11-18T05:27:23.035Z,6.93
2022-11-18T05:29:56.299Z,8.35
2022-11-18T05:32:29.886Z,7.68
2022-11-18T05:35:03.315Z,5.93
2022-11-18T05:37:38.338Z,5.68
2022-11-18T05:40:12.530Z,5.93
2022-11-18T05:43:03.328Z,5.97
2022-11-18T05:45:36.919Z,5.00
2022-11-18T05:48:10.278Z,6.18
2022-11-18T05:50:43.864Z,5.47
2022-11-18T05:53:20.391Z,4.90
2022-11-18T05:55:59.769Z,4.80
2022-11-18T05:58:33.069Z,5.03
2022-11-18T06:01:08.091Z,5.18
2022-11-18T06:03:42.575Z,5.90
2022-11-18T06:06:20.394Z,4.93
2022-11-18T06:09:01.609Z,5.38
2022-11-18T06:11:40.497Z,5.55
2022-11-18T06:14:20.933Z,6.03
2022-11-18T06:16:57.524Z,6.68
2022-11-18T06:19:32.837Z,5.93
2022-11-18T06:22:06.660Z,6.80
2022-11-18T06:24:42.997Z,7.00
2022-11-18T06:27:17.060Z,7.05
2022-11-18T06:29:50.352Z,6.47
2022-11-18T06:32:23.894Z,11.90
2022-11-18T06:34:57.175Z,11.13
2022-11-18T06:37:30.460Z,12.55
2022-11-18T06:40:05.668Z,7.90
2022-11-18T06:42:56.592Z,12.13
2022-11-18T06:45:29.989Z,9.27
2022-11-18T06:48:02.486Z,8.43
2022-11-18T06:53:08.941Z,9.18
2022-11-18T06:55:43.580Z,10.52
2022-11-18T06:58:16.852Z,10.32
2022-11-18T07:00:50.165Z,7.50
2022-11-18T07:03:23.465Z,7.85
2022-11-18T07:05:56.730Z,7.70
2022-11-18T07:08:29.993Z,6.55
2022-11-18T07:11:05.519Z,6.32
2022-11-18T07:13:43.436Z,6.25
2022-11-18T07:16:19.014Z,6.55
2022-11-18T07:18:53.855Z,6.78
2022-11-18T07:21:29.128Z,6.18
2022-11-18T07:24:02.605Z,6.03
2022-11-18T07:26:37.683Z,7.45
2022-11-18T07:29:11.556Z,8.45
2022-11-18T07:31:44.997Z,8.10
2022-11-18T07:34:18.560Z,6.15
2022-11-18T07:36:51.859Z,9.48
2022-11-18T07:39:25.134Z,8.60
2022-11-18T07:41:59.780Z,10.25
2022-11-18T07:44:33.029Z,6.60
2022-11-18T07:47:06.350Z,6.45
2022-11-18T07:49:39.693Z,6.25
2022-11-18T07:52:13.064Z,6.15
2022-11-18T07:54:46.413Z,7.15
2022-11-18T07:57:21.100Z,6.05
2022-11-18T07:59:54.427Z,5.57
2022-11-18T08:02:27.734Z,5.40
2022-11-18T08:05:01.077Z,5.85
2022-11-18T08:07:34.598Z,5.85
2022-11-18T08:10:08.943Z,5.93
2022-11-18T08:12:43.601Z,7.25
2022-11-18T08:15:17.119Z,5.60
2022-11-18T08:17:50.703Z,5.28
2022-11-18T08:20:27.260Z,5.32
2022-11-18T08:23:00.550Z,5.78
2022-11-18T08:25:34.016Z,6.97
2022-11-18T08:28:08.755Z,5.65
2022-11-18T08:30:42.559Z,4.78
2022-11-18T08:33:15.893Z,3.55
2022-11-18T08:35:49.226Z,3.78
2022-11-18T08:38:22.566Z,3.75
2022-11-18T08:40:55.898Z,5.10
2022-11-18T08:43:30.561Z,3.22
2022-11-18T08:46:04.005Z,5.55
2022-11-18T08:48:37.427Z,5.28
2022-11-18T08:51:12.118Z,4.00
2022-11-18T08:53:45.737Z,3.95
2022-11-18T08:56:21.116Z,6.82
2022-11-18T08:58:55.871Z,6.00
2022-11-18T09:01:29.290Z,8.95
2022-11-18T09:04:02.644Z,5.03
2022-11-18T09:06:36.010Z,8.43
2022-11-18T09:09:10.682Z,5.43
2022-11-18T09:11:43.946Z,3.78
2022-11-18T09:15:12.301Z,8.05
2022-11-18T09:17:11.888Z,5.93
2022-11-18T09:19:48.005Z,4.10
2022-11-18T09:22:21.605Z,4.00
2022-11-18T09:24:54.901Z,2.25
2022-11-18T09:27:28.234Z,2.58
2022-11-18T09:30:02.918Z,7.22
2022-11-18T09:32:36.299Z,2.88
2022-11-18T09:35:09.900Z,3.75
2022-11-18T09:37:43.161Z,2.53
2022-11-18T09:40:19.189Z,2.63
2022-11-18T09:43:04.825Z,3.17
2022-11-18T09:45:45.184Z,3.53
2022-11-18T09:48:41.638Z,3.35
2022-11-18T09:51:15.576Z,3.08
2022-11-18T09:53:48.979Z,3.55
2022-11-18T09:56:23.508Z,3.08
2022-11-18T09:58:58.036Z,2.15
2022-11-18T10:01:32.812Z,2.38
2022-11-18T10:04:06.273Z,2.85
2022-11-18T10:06:39.557Z,2.45
2022-11-18T10:09:26.440Z,2.20
2022-11-18T10:12:14.568Z,2.83
2022-11-18T10:14:59.056Z,2.40
2022-11-18T10:17:44.775Z,2.33
2022-11-18T10:20:38.633Z,4.10
2022-11-18T10:23:18.361Z,2.47
2022-11-18T10:25:51.847Z,4.03
2022-11-18T10:28:29.546Z,5.32
2022-11-18T10:31:07.189Z,5.43
2022-11-18T10:33:41.825Z,3.55
2022-11-18T10:36:28.790Z,3.50
2022-11-18T10:39:11.667Z,5.05
2022-11-18T10:41:47.990Z,5.03
2022-11-18T10:44:34.867Z,5.68
2022-11-18T10:47:23.812Z,6.93
2022-11-18T10:50:00.758Z,7.75
2022-11-18T10:52:34.159Z,5.35
2022-11-18T10:55:22.341Z,4.95
2022-11-18T10:57:59.371Z,5.45
2022-11-18T11:00:51.004Z,3.45
2022-11-18T11:03:39.922Z,6.68
2022-11-18T11:06:31.138Z,4.35
2022-11-18T11:09:09.889Z,3.45
2022-11-18T11:11:55.946Z,3.42
2022-11-18T11:14:36.142Z,6.03
2022-11-18T11:17:13.535Z,5.40
2022-11-18T11:19:53.226Z,3.35
2022-11-18T11:22:28.016Z,3.05
2022-11-18T11:25:01.320Z,2.63
2022-11-18T11:30:59.868Z,2.95
2022-11-18T11:33:40.636Z,2.63
2022-11-18T11:36:33.498Z,3.92
2022-11-18T11:42:02.134Z,2.40
2022-11-18T11:44:49.972Z,3.00
2022-11-18T11:47:50.959Z,6.68
2022-11-18T11:50:31.473Z,3.60
2022-11-18T11:53:18.225Z,3.38
2022-11-18T11:56:03.062Z,3.55
2022-11-18T11:58:51.340Z,4.75
2022-11-18T12:01:32.450Z,4.97
2022-11-18T12:04:17.252Z,3.38
2022-11-18T12:06:54.620Z,5.82
2022-11-18T12:09:40.521Z,7.03
2022-11-18T12:12:38.335Z,3.60
2022-11-18T12:15:33.058Z,5.15
2022-11-18T12:18:13.755Z,4.32
2022-11-18T12:20:48.586Z,3.88
2022-11-18T12:23:23.075Z,3.13
2022-11-18T12:26:02.920Z,2.92
2022-11-18T12:28:41.272Z,3.25
2022-11-18T12:31:37.328Z,3.38
2022-11-18T12:34:30.506Z,4.07
2022-11-18T12:37:45.614Z,2.55
2022-11-18T12:40:42.517Z,3.97
2022-11-18T12:44:04.854Z,3.38
2022-11-18T12:46:54.873Z,2.85
2022-11-18T12:50:05.007Z,2.28
2022-11-18T12:52:54.795Z,4.22
2022-11-18T12:55:38.522Z,3.20
2022-11-18T12:58:24.541Z,2.25
2022-11-18T13:01:09.672Z,3.00
2022-11-18T13:03:44.422Z,2.22
2022-11-18T13:06:26.763Z,2.20
2022-11-18T13:09:02.310Z,2.70
2022-11-18T13:11:51.917Z,2.40
2022-11-18T13:14:46.943Z,2.90
2022-11-18T13:17:50.211Z,3.03
2022-11-18T13:20:31.149Z,3.08
2022-11-18T13:23:38.263Z,2.38
2022-11-18T13:26:18.773Z,3.05
2022-11-18T13:29:12.175Z,3.42
2022-11-18T13:31:55.988Z,3.38
2022-11-18T13:34:31.838Z,3.47
2022-11-18T13:37:17.084Z,3.83
2022-11-18T13:39:51.167Z,2.78
2022-11-18T13:42:26.297Z,3.08
2022-11-18T13:45:01.034Z,3.80
2022-11-18T13:47:40.347Z,3.63
2022-11-18T13:50:20.921Z,3.92
2022-11-18T13:53:04.720Z,3.70
2022-11-18T13:55:41.510Z,3.60
2022-11-18T13:58:30.802Z,3.35
2022-11-18T14:01:07.896Z,3.83
2022-11-18T14:03:50.562Z,3.20
2022-11-18T14:09:19.819Z,4.15
2022-11-18T14:12:01.922Z,4.32
2022-11-18T14:14:37.017Z,3.85
2022-11-18T14:17:19.024Z,4.75
2022-11-18T14:19:54.179Z,3.97
2022-11-18T14:22:29.749Z,5.20
2022-11-18T14:25:16.781Z,4.78
2022-11-18T14:27:50.991Z,4.43
2022-11-18T14:30:39.889Z,12.65
2022-11-18T14:33:21.727Z,16.10
2022-11-18T14:35:58.111Z,10.20
2022-11-18T14:39:25.001Z,6.03
2022-11-18T14:41:49.546Z,10.45
2022-11-18T14:44:24.586Z,9.27
2022-11-18T14:47:00.225Z,5.93
2022-11-18T14:49:34.155Z,6.05
2022-11-18T14:52:07.809Z,5.00
2022-11-18T14:54:41.095Z,3.95
2022-11-18T14:57:19.082Z,2.83
2022-11-18T14:59:52.435Z,5.28
2022-11-18T15:02:25.803Z,4.18
2022-11-18T15:04:59.159Z,3.00
2022-11-18T15:07:32.679Z,2.78
2022-11-18T15:10:06.492Z,2.97
2022-11-18T15:12:41.185Z,4.60
2022-11-18T15:15:14.759Z,3.47
2022-11-18T15:17:53.657Z,3.30
2022-11-18T15:20:27.405Z,3.08
2022-11-18T15:23:00.707Z,3.53
2022-11-18T15:25:33.955Z,5.15
2022-11-18T15:28:10.955Z,3.38
2022-11-18T15:30:44.342Z,3.30
2022-11-18T15:33:17.755Z,5.05
2022-11-18T15:35:51.095Z,2.90
2022-11-18T15:38:24.353Z,4.32
2022-11-18T15:40:58.825Z,3.65
2022-11-18T15:43:33.561Z,3.53
2022-11-18T15:46:07.032Z,3.78
2022-11-18T15:48:40.376Z,4.10
2022-11-18T15:51:13.995Z,3.45
2022-11-18T15:53:47.488Z,4.43
2022-11-18T15:56:28.284Z,6.50
2022-11-18T15:59:05.317Z,7.53
2022-11-18T16:01:40.666Z,7.28
2022-11-18T16:04:15.489Z,6.30
2022-11-18T16:06:49.646Z,4.88
2022-11-18T16:09:22.943Z,4.82
2022-11-18T16:12:13.742Z,6.50
2022-11-18T16:15:08.435Z,4.65
2022-11-18T16:17:41.846Z,4.00
2022-11-18T16:20:16.420Z,4.43
2022-11-18T16:22:49.766Z,4.70
2022-11-18T16:25:23.466Z,4.03
2022-11-18T16:27:59.626Z,4.95
2022-11-18T16:30:55.950Z,4.75
2022-11-18T16:33:29.319Z,6.50
2022-11-18T16:36:02.909Z,10.88
2022-11-18T16:38:36.285Z,8.25
2022-11-18T16:41:30.616Z,6.13
2022-11-18T16:44:06.078Z,6.75
2022-11-18T16:46:42.279Z,7.05
2022-11-18T16:49:18.097Z,8.40
2022-11-18T16:51:53.807Z,8.55
2022-11-18T16:54:28.727Z,8.05
2022-11-18T16:57:02.111Z,10.43
2022-11-18T16:59:35.428Z,6.72
2022-11-18T17:02:13.567Z,7.70
2022-11-18T17:04:47.261Z,6.97
2022-11-18T17:07:20.641Z,7.60
2022-11-18T17:09:56.456Z,7.55
2022-11-18T17:12:29.764Z,6.15
2022-11-18T17:15:03.039Z,6.00
2022-11-18T17:17:37.684Z,9.38
2022-11-18T17:20:11.793Z,7.80
2022-11-18T17:22:45.169Z,9.75
2022-11-18T17:25:18.591Z,8.02
2022-11-18T17:27:51.928Z,8.50
2022-11-18T17:30:25.402Z,9.52
2022-11-18T17:33:00.070Z,9.90
2022-11-18T17:35:33.382Z,11.95
2022-11-18T17:38:07.181Z,12.10
2022-11-18T17:40:40.465Z,8.82
2022-11-18T17:43:13.772Z,9.95
2022-11-18T17:45:51.045Z,9.90
2022-11-18T17:48:26.857Z,8.50
2022-11-18T17:51:07.237Z,8.02
2022-11-18T17:53:43.465Z,9.65
2022-11-18T17:56:17.077Z,8.57
2022-11-18T17:58:51.282Z,8.93
2022-11-18T18:01:25.592Z,8.73
2022-11-18T18:04:00.328Z,10.68
2022-11-18T18:06:33.588Z,11.93
2022-11-18T18:09:06.881Z,9.80
2022-11-18T18:11:40.146Z,11.18
2022-11-18T18:14:12.474Z,10.65
2022-11-18T18:19:22.351Z,11.48
2022-11-18T18:21:55.663Z,11.18
2022-11-18T18:24:29.015Z,10.32
2022-11-18T18:27:02.344Z,10.15
2022-11-18T18:29:35.834Z,11.88
2022-11-18T18:32:09.319Z,10.18
2022-11-18T18:34:43.992Z,9.55
2022-11-18T18:37:17.305Z,10.43
2022-11-18T18:39:50.617Z,9.55
2022-11-18T18:42:23.885Z,8.57
2022-11-18T18:45:14.731Z,8.32
2022-11-18T18:47:47.982Z,9.27
2022-11-18T18:50:28.228Z,7.95
2022-11-18T18:53:05.988Z,7.10
2022-11-18T18:55:44.710Z,8.45
2022-11-18T18:58:18.473Z,7.38
2022-11-18T19:00:55.515Z,8.70
2022-11-18T19:03:31.506Z,7.78
2022-11-18T19:06:48.794Z,9.65
2022-11-18T19:09:11.430Z,7.32
2022-11-18T19:12:02.848Z,8.32
2022-11-18T19:14:36.233Z,7.05
2022-11-18T19:17:11.751Z,8.90
2022-11-18T19:20:03.131Z,8.52
2022-11-18T19:22:38.371Z,8.27
2022-11-18T19:25:11.714Z,8.80
2022-11-18T19:27:45.102Z,7.85
2022-11-18T19:30:18.757Z,7.07
2022-11-18T19:32:52.051Z,8.77
2022-11-18T19:35:25.693Z,7.82
2022-11-18T19:38:00.398Z,9.60
2022-11-18T19:40:33.695Z,10.77
2022-11-18T19:43:07.102Z,11.85
2022-11-18T19:45:40.524Z,12.02
2022-11-18T19:48:13.863Z,13.80
2022-11-18T19:50:47.189Z,9.00
2022-11-18T19:53:34.911Z,10.32
2022-11-18T19:56:10.407Z,10.35
2022-11-18T19:58:45.136Z,10.43
2022-11-18T20:01:20.297Z,11.32
2022-11-18T20:03:55.350Z,15.52
2022-11-18T20:06:29.253Z,25.10
2022-11-18T20:09:07.163Z,14.77
2022-11-18T20:11:40.544Z,9.80
2022-11-18T20:14:14.144Z,12.48
2022-11-18T20:16:47.472Z,12.60
2022-11-18T20:19:21.212Z,12.48
2022-11-18T20:21:54.636Z,14.05
2022-11-18T20:24:29.361Z,12.43
2022-11-18T20:27:02.620Z,15.35
2022-11-18T20:29:35.872Z,13.00
2022-11-18T20:32:09.335Z,13.98
2022-11-18T20:34:42.764Z,11.35
2022-11-18T20:37:18.081Z,9.10
2022-11-18T20:39:52.739Z,8.80
2022-11-18T20:42:44.320Z,10.27
2022-11-18T20:45:17.903Z,10.48
2022-11-18T20:47:51.227Z,9.63
2022-11-18T20:50:24.544Z,9.02
2022-11-18T20:52:58.210Z,8.35
2022-11-18T20:55:35.973Z,9.00
2022-11-18T20:58:09.521Z,8.52
2022-11-18T21:00:43.715Z,8.30
2022-11-18T21:03:18.579Z,9.10
2022-11-18T21:05:51.882Z,9.35
2022-11-18T21:08:25.338Z,9.93
2022-11-18T21:11:03.885Z,8.65
2022-11-18T21:13:55.706Z,8.73
2022-11-18T21:16:29.320Z,8.23
2022-11-18T21:19:02.675Z,9.85
2022-11-18T21:21:49.220Z,9.70
2022-11-18T21:24:24.251Z,9.25
2022-11-18T21:27:00.492Z,9.15
2022-11-18T21:29:34.187Z,10.45
2022-11-18T21:32:07.484Z,10.85
2022-11-18T21:34:40.744Z,10.05
2022-11-18T21:37:14.326Z,10.68
2022-11-18T21:39:47.686Z,10.27
2022-11-18T21:42:22.363Z,8.85
2022-11-18T21:44:55.657Z,9.70
2022-11-18T21:47:28.960Z,10.27
2022-11-18T21:50:02.259Z,10.82
2022-11-18T21:52:35.674Z,9.35
2022-11-18T21:55:09.657Z,10.07
2022-11-18T21:57:44.358Z,9.35
2022-11-18T22:00:18.813Z,9.63
2022-11-18T22:02:52.151Z,8.90
2022-11-18T22:05:25.461Z,9.57
2022-11-18T22:07:58.783Z,11.05
2022-11-18T22:10:32.128Z,14.05
2022-11-18T22:13:07.581Z,10.38
2022-11-18T22:15:40.932Z,10.98
2022-11-18T22:18:14.242Z,9.93
2022-11-18T22:20:47.723Z,9.00
2022-11-18T22:23:21.992Z,9.15
2022-11-18T22:25:59.213Z,7.65
2022-11-18T22:28:34.264Z,7.80
2022-11-18T22:31:09.363Z,7.40
2022-11-18T22:33:43.230Z,9.00
2022-11-18T22:36:18.368Z,8.65
2022-11-18T22:38:52.252Z,8.70
2022-11-18T22:41:47.446Z,8.63
2022-11-18T22:44:22.237Z,8.20
2022-11-18T22:46:55.527Z,7.63
2022-11-18T22:49:28.831Z,7.68
2022-11-18T22:52:02.162Z,8.40
2022-11-18T22:54:39.880Z,7.68
2022-11-18T22:57:13.432Z,9.07
2022-11-18T22:59:48.033Z,9.57
2022-11-18T23:02:21.476Z,7.60
2022-11-18T23:04:55.037Z,12.77
2022-11-18T23:07:28.465Z,14.15
2022-11-18T23:10:01.952Z,12.63
2022-11-18T23:12:52.543Z,13.13
2022-11-18T23:15:27.454Z,11.55
2022-11-18T23:18:00.741Z,10.75
2022-11-18T23:20:34.333Z,10.40
2022-11-18T23:23:07.611Z,12.15
2022-11-18T23:25:41.182Z,10.60
2022-11-18T23:28:14.430Z,12.63
2022-11-18T23:30:49.485Z,12.10
2022-11-18T23:33:22.736Z,12.38
2022-11-18T23:35:56.007Z,11.88
2022-11-18T23:38:30.399Z,11.88
2022-11-18T23:41:05.372Z,11.25
2022-11-18T23:43:39.611Z,10.75
2022-11-18T23:46:14.874Z,11.00
2022-11-18T23:48:48.473Z,11.63
2022-11-18T23:51:23.443Z,13.07
2022-11-18T23:53:57.939Z,14.00
2022-11-18T23:56:36.468Z,12.30
2022-11-18T23:59:11.198Z,11.32
